Time;durP1;ratioP1;P1;durP2;ratioP2;P2;SDS_P1;SDS_P2;PMS_P1;PMS_P2;Temp;Humidity;BMP_temperature;BMP_pressure;BME280_temperature;BME280_humidity;BME280_pressure;Samples;Min_cycle;Max_cycle;Signal;HPM_P1;HPM_P2
2021/08/24 00:00:19;;;;;;;1.57;1.20;;;;;;;13.48;100.00;96452.44;1040446;28;20142;-79
2021/08/24 00:00:50;;;;;;;2.30;1.30;;;;;;;13.49;100.00;96451.34;1036291;28;20025;-80
2021/08/24 00:01:21;;;;;;;2.53;1.03;;;;;;;13.49;100.00;96456.72;1037257;28;20176;-80
2021/08/24 00:01:51;;;;;;;3.30;1.33;;;;;;;13.45;100.00;96444.13;1040588;28;20025;-79
2021/08/24 00:02:22;;;;;;;2.07;1.47;;;;;;;13.44;100.00;96445.19;1037109;28;20088;-80
2021/08/24 00:02:52;;;;;;;1.73;1.10;;;;;;;13.43;100.00;96455.13;1040374;28;20025;-79
2021/08/24 00:03:23;;;;;;;1.70;1.20;;;;;;;13.45;100.00;96446.81;1037101;28;20036;-79
2021/08/24 00:03:53;;;;;;;3.33;1.40;;;;;;;13.47;100.00;96455.41;1036456;28;20057;-80
2021/08/24 00:04:23;;;;;;;4.50;1.00;;;;;;;13.44;100.00;96453.25;1040331;28;20026;-79
2021/08/24 00:04:54;;;;;;;2.37;1.10;;;;;;;13.45;100.00;96452.97;1040457;28;20017;-79
2021/08/24 00:05:27;;;;;;;2.20;1.20;;;;;;;13.41;100.00;96446.56;1040555;28;20022;-79
2021/08/24 00:05:57;;;;;;;2.28;1.10;;;;;;;13.42;100.00;96453.53;1032194;28;20010;-79
2021/08/24 00:06:28;;;;;;;2.20;1.10;;;;;;;13.45;100.00;96460.22;1036381;28;20030;-79
2021/08/24 00:06:58;;;;;;;1.87;1.10;;;;;;;13.46;100.00;96459.13;1036268;28;20022;-78
2021/08/24 00:07:29;;;;;;;2.77;1.23;;;;;;;13.47;100.00;96455.41;1036736;28;20022;-79
2021/08/24 00:07:59;;;;;;;2.87;1.50;;;;;;;13.49;100.00;96451.34;1040323;28;20022;-79
2021/08/24 00:08:29;;;;;;;1.63;1.17;;;;;;;13.50;100.00;96452.16;1036500;28;20092;-79
2021/08/24 00:09:00;;;;;;;2.37;1.20;;;;;;;13.48;100.00;96451.63;1040531;28;20164;-79
2021/08/24 00:09:31;;;;;;;4.23;1.20;;;;;;;13.46;100.00;96451.91;1040958;28;20032;-79
2021/08/24 00:10:05;;;;;;;2.17;1.15;;;;;;;13.49;100.00;96451.34;1041656;28;20027;-79
2021/08/24 00:10:40;;;;;;;1.95;1.23;;;;;;;13.46;100.00;96453.75;1041598;28;20080;-79
2021/08/24 00:11:11;;;;;;;1.75;1.20;;;;;;;13.44;100.00;96446.00;1036885;28;20026;-79
2021/08/24 00:11:41;;;;;;;6.73;1.50;;;;;;;13.44;100.00;96453.25;1032681;28;20026;-79
2021/08/24 00:12:12;;;;;;;3.20;1.10;;;;;;;13.49;100.00;96454.03;1025036;28;20115;-79
2021/08/24 00:12:42;;;;;;;2.97;1.20;;;;;;;13.50;100.00;96452.94;1025082;28;20070;-79
2021/08/24 00:13:12;;;;;;;1.70;1.20;;;;;;;13.52;100.00;96452.69;1028893;28;20023;-79
2021/08/24 00:13:44;;;;;;;2.23;1.30;;;;;;;13.50;100.00;96449.47;1033073;28;20026;-79
2021/08/24 00:14:14;;;;;;;2.00;1.17;;;;;;;13.50;100.00;96454.81;1044614;28;20021;-79
2021/08/24 00:14:44;;;;;;;4.43;1.30;;;;;;;13.51;100.00;96457.25;1044457;28;20033;-78
2021/08/24 00:15:15;;;;;;;1.53;1.10;;;;;;;13.51;100.00;96457.25;1040546;28;20044;-79
2021/08/24 00:15:45;;;;;;;1.47;1.10;;;;;;;13.48;100.00;96451.63;1044367;28;20376;-79
2021/08/24 00:16:17;;;;;;;1.50;1.10;;;;;;;13.46;100.00;96451.91;1036361;28;20022;-78
2021/08/24 00:16:47;;;;;;;3.42;1.58;;;;;;;13.42;100.00;96452.75;1032421;28;20029;-79
2021/08/24 00:17:18;;;;;;;2.17;1.17;;;;;;;13.39;100.00;96448.72;1032309;28;20030;-78
2021/08/24 00:17:48;;;;;;;3.23;1.37;;;;;;;13.39;100.00;96451.41;1035544;28;20053;-78
2021/08/24 00:18:19;;;;;;;3.73;1.20;;;;;;;13.40;100.00;96444.13;1032249;28;20034;-78
2021/08/24 00:18:49;;;;;;;2.57;1.07;;;;;;;13.38;100.00;96452.47;1032363;28;20038;-78
2021/08/24 00:19:20;;;;;;;2.83;1.17;;;;;;;13.38;100.00;96452.47;1036449;28;20029;-78
2021/08/24 00:19:50;;;;;;;4.00;1.30;;;;;;;13.34;100.00;96448.72;1036481;28;20044;-78
2021/08/24 00:20:22;;;;;;;4.83;1.30;;;;;;;13.37;100.00;96450.09;1032275;28;20037;-78
2021/08/24 00:20:53;;;;;;;2.35;1.50;;;;;;;13.39;100.00;96448.72;1028111;28;20034;-79
2021/08/24 00:21:24;;;;;;;3.83;1.23;;;;;;;13.40;100.00;96452.19;1032542;28;20026;-79
2021/08/24 00:21:54;;;;;;;1.20;1.00;;;;;;;13.42;100.00;96453.53;1033023;28;20030;-79
2021/08/24 00:22:24;;;;;;;1.80;1.30;;;;;;;13.41;100.00;96451.09;1040523;28;20029;-79
2021/08/24 00:22:55;;;;;;;2.03;1.27;;;;;;;13.42;100.00;96447.38;1044349;28;20025;-78
2021/08/24 00:23:26;;;;;;;4.93;1.40;;;;;;;13.41;100.00;96453.78;1040418;28;20073;-78
2021/08/24 00:23:57;;;;;;;1.98;1.30;;;;;;;13.42;100.00;96452.75;1040819;28;20067;-78
2021/08/24 00:24:27;;;;;;;1.37;1.10;;;;;;;13.42;100.00;96453.53;1040752;28;20033;-79
2021/08/24 00:24:57;;;;;;;1.77;1.10;;;;;;;13.41;100.00;96446.56;1040605;28;20052;-79
2021/08/24 00:25:28;;;;;;;2.43;1.40;;;;;;;13.41;100.00;96449.25;1040741;28;20502;-79
2021/08/24 00:25:58;;;;;;;1.90;1.30;;;;;;;13.41;100.00;96451.94;1040664;28;20033;-80
2021/08/24 00:26:29;;;;;;;2.37;1.20;;;;;;;13.41;100.00;96449.25;1043629;28;20382;-79
2021/08/24 00:26:59;;;;;;;1.40;1.10;;;;;;;13.39;100.00;96448.72;1040176;28;20036;-79
2021/08/24 00:27:30;;;;;;;1.83;1.20;;;;;;;13.39;100.00;96448.72;1039802;28;20037;-80
2021/08/24 00:28:00;;;;;;;4.00;1.33;;;;;;;13.46;100.00;96451.91;1036105;28;20053;-80
2021/08/24 00:28:30;;;;;;;1.83;1.20;;;;;;;13.48;100.00;96447.06;1040444;28;20028;-79
2021/08/24 00:29:01;;;;;;;2.07;1.20;;;;;;;13.50;100.00;96439.50;1040345;28;20021;-79
2021/08/24 00:29:31;;;;;;;1.87;1.20;;;;;;;13.49;100.00;96445.97;1040425;28;20026;-79
2021/08/24 00:30:02;;;;;;;3.03;1.43;;;;;;;13.49;100.00;96443.28;1044466;28;20017;-79
2021/08/24 00:30:34;;;;;;;2.25;1.30;;;;;;;13.45;100.00;96439.53;1044480;28;20037;-79
2021/08/24 00:31:04;;;;;;;1.88;1.17;;;;;;;13.47;100.00;96447.34;1044423;28;20473;-79
2021/08/24 00:31:34;;;;;;;1.53;1.20;;;;;;;13.49;100.00;96442.50;1040293;28;20167;-80
2021/08/24 00:32:06;;;;;;;1.83;1.03;;;;;;;13.49;100.00;96448.66;1040363;28;20017;-80
2021/08/24 00:32:36;;;;;;;5.10;1.48;;;;;;;13.48;100.00;96439.00;1032370;28;20091;-80
2021/08/24 00:33:07;;;;;;;1.73;1.20;;;;;;;13.48;100.00;96441.69;1036354;28;20490;-79
2021/08/24 00:33:37;;;;;;;1.85;1.20;;;;;;;13.42;100.00;96440.13;1036204;28;20021;-79
2021/08/24 00:34:08;;;;;;;1.77;1.30;;;;;;;13.42;100.00;96436.63;1036275;28;20022;-80
2021/08/24 00:34:38;;;;;;;1.50;1.00;;;;;;;13.46;100.00;96437.66;1036144;28;20494;-79
2021/08/24 00:35:09;;;;;;;1.90;1.27;;;;;;;13.42;100.00;96437.44;1036338;28;20021;-79
2021/08/24 00:35:40;;;;;;;4.40;1.20;;;;;;;13.43;100.00;96438.22;1040411;28;20024;-79
2021/08/24 00:36:14;;;;;;;2.42;1.27;;;;;;;13.41;100.00;96437.69;1036292;28;20104;-79
2021/08/24 00:36:44;;;;;;;2.95;1.52;;;;;;;13.40;100.00;96442.25;1036243;28;20022;-79
2021/08/24 00:37:15;;;;;;;1.37;0.97;;;;;;;13.39;100.00;96437.97;1036784;28;20030;-79
2021/08/24 00:37:45;;;;;;;1.83;1.10;;;;;;;13.38;100.00;96443.63;1041044;28;20021;-79
2021/08/24 00:38:19;;;;;;;3.73;1.40;;;;;;;13.36;100.00;96435.84;1044751;28;20096;-78
2021/08/24 00:38:49;;;;;;;2.78;1.30;;;;;;;13.35;100.00;96436.91;1040264;28;20021;-78
2021/08/24 00:39:20;;;;;;;1.60;1.20;;;;;;;13.34;100.00;96432.63;1040361;28;20034;-79
2021/08/24 00:39:50;;;;;;;3.53;1.30;;;;;;;13.36;100.00;96433.16;1036234;28;20018;-79
2021/08/24 00:40:21;;;;;;;2.23;1.20;;;;;;;13.36;100.00;96437.72;1027963;28;20094;-78
2021/08/24 00:40:56;;;;;;;2.67;1.40;;;;;;;13.37;100.00;96432.09;1028021;28;20023;-78
2021/08/24 00:41:27;;;;;;;2.75;1.30;;;;;;;13.36;100.00;96429.66;1032191;28;20031;-78
2021/08/24 00:41:58;;;;;;;5.50;1.13;;;;;;;13.34;100.00;96435.31;1033863;28;20146;-79
2021/08/24 00:42:28;;;;;;;3.50;1.07;;;;;;;13.31;100.00;96435.06;1036970;28;20160;-79
2021/08/24 00:42:58;;;;;;;6.43;1.63;;;;;;;13.33;100.00;96439.09;1036250;28;20021;-79
2021/08/24 00:43:30;;;;;;;2.07;1.13;;;;;;;13.33;100.00;96436.41;1032216;28;20023;-79
2021/08/24 00:44:00;;;;;;;1.80;1.17;;;;;;;13.32;100.00;96437.47;1032234;28;20031;-79
2021/08/24 00:44:31;;;;;;;2.13;1.20;;;;;;;13.35;100.00;96439.59;1036305;28;20025;-78
2021/08/24 00:45:01;;;;;;;2.87;1.60;;;;;;;13.36;100.00;96435.84;1036277;28;20030;-79
2021/08/24 00:45:34;;;;;;;4.37;1.27;;;;;;;13.33;100.00;96436.41;1040330;28;20031;-78
2021/08/24 00:46:10;;;;;;;2.33;1.23;;;;;;;13.29;100.00;96440.72;1036051;28;20050;-79
2021/08/24 00:46:44;;;;;;;3.42;1.40;;;;;;;13.32;100.00;96437.47;1037049;28;20108;-79
2021/08/24 00:47:16;;;;;;;2.10;1.10;;;;;;;13.32;100.00;96434.78;1036163;28;20017;-79
2021/08/24 00:47:48;;;;;;;2.60;1.23;;;;;;;13.30;100.00;96434.25;1034257;28;20053;-79
2021/08/24 00:48:22;;;;;;;2.75;1.30;;;;;;;13.31;100.00;96437.75;1040203;28;20025;-79
2021/08/24 00:48:52;;;;;;;3.95;1.30;;;;;;;13.30;100.00;96439.63;1036068;28;20030;-79
2021/08/24 00:49:24;;;;;;;4.00;1.63;;;;;;;13.27;100.00;96427.56;1028825;28;20027;-79
2021/08/24 00:50:01;;;;;;;2.22;1.30;;;;;;;13.25;100.00;96440.44;1032077;28;20070;-78
2021/08/24 00:50:33;;;;;;;1.85;1.15;;;;;;;13.25;100.00;96434.28;1033244;28;20030;-78
2021/08/24 00:51:04;;;;;;;2.20;1.10;;;;;;;13.26;100.00;96438.59;1033475;28;20024;-79
2021/08/24 00:51:35;;;;;;;2.03;1.20;;;;;;;13.25;100.00;96439.66;1036122;28;20041;-79
2021/08/24 00:52:08;;;;;;;2.35;1.33;;;;;;;13.25;100.00;96432.41;1037233;28;20100;-79
2021/08/24 00:52:39;;;;;;;2.38;1.15;;;;;;;13.25;100.00;96432.41;1041002;28;20025;-78
2021/08/24 00:53:10;;;;;;;1.73;1.20;;;;;;;13.23;100.00;96434.56;1044358;28;20054;-79
2021/08/24 00:53:41;;;;;;;2.60;1.20;;;;;;;13.22;100.00;96442.91;1040188;28;20110;-79
2021/08/24 00:54:13;;;;;;;1.77;1.10;;;;;;;13.21;100.00;96433.22;1040181;28;20086;-79
2021/08/24 00:54:43;;;;;;;3.45;1.27;;;;;;;13.20;100.00;96434.28;1031959;28;20082;-78
2021/08/24 00:55:15;;;;;;;4.60;1.33;;;;;;;13.16;100.00;96436.72;1023743;28;20050;-78
2021/08/24 00:55:45;;;;;;;2.10;1.40;;;;;;;13.18;100.00;96439.13;1028519;28;20037;-78
2021/08/24 00:56:16;;;;;;;2.20;1.30;;;;;;;13.17;100.00;96435.63;1028190;28;20034;-79
2021/08/24 00:56:49;;;;;;;2.13;1.50;;;;;;;13.18;100.00;96434.56;1032633;28;20045;-77
2021/08/24 00:57:21;;;;;;;2.00;1.10;;;;;;;13.16;100.00;96439.41;1044297;28;20095;-79
2021/08/24 00:58:02;;;;;;;2.97;1.20;;;;;;;13.16;100.00;96431.34;1045103;28;20461;-79
2021/08/24 00:58:33;;;;;;;3.20;1.30;;;;;;;13.15;100.00;96442.34;1044321;28;20489;-79
2021/08/24 00:59:03;;;;;;;2.00;1.33;;;;;;;13.14;100.00;96440.75;1042471;28;20080;-79
2021/08/24 00:59:34;;;;;;;5.13;1.30;;;;;;;13.16;100.00;96433.25;1040100;28;20025;-79
2021/08/24 01:00:05;;;;;;;2.00;1.07;;;;;;;13.17;100.00;96429.47;1040264;28;20026;-79
2021/08/24 01:00:35;;;;;;;2.83;1.30;;;;;;;13.20;100.00;96432.38;1040459;28;20021;-78
2021/08/24 01:01:06;;;;;;;2.30;1.20;;;;;;;13.19;100.00;96432.66;1040612;28;20045;-79
2021/08/24 01:01:36;;;;;;;2.10;1.20;;;;;;;13.21;100.00;96433.22;1040249;28;20017;-79
2021/08/24 01:02:07;;;;;;;2.00;1.20;;;;;;;13.18;100.00;96423.03;1040214;28;20026;-79
2021/08/24 01:02:38;;;;;;;1.40;1.00;;;;;;;13.18;100.00;96433.75;1040119;28;20029;-79
2021/08/24 01:03:10;;;;;;;3.53;1.30;;;;;;;13.19;100.00;96432.66;1040356;28;20029;-78
2021/08/24 01:03:43;;;;;;;2.33;1.15;;;;;;;13.18;100.00;96433.75;1039914;28;20025;-79
2021/08/24 01:04:14;;;;;;;2.90;1.55;;;;;;;13.18;100.00;96431.06;1036090;28;20168;-80
2021/08/24 01:04:45;;;;;;;3.47;1.17;;;;;;;13.15;100.00;96426.25;1036087;28;20076;-80
2021/08/24 01:05:16;;;;;;;1.88;1.10;;;;;;;13.18;100.00;96423.03;1032631;28;20401;-80
2021/08/24 01:05:50;;;;;;;3.00;1.27;;;;;;;13.18;100.00;96434.56;1028541;28;20070;-80
2021/08/24 01:06:41;;;;;;;2.55;1.13;;;;;;;13.16;100.00;96428.69;1028739;28;20472;-80
2021/08/24 01:07:33;;;;;;;2.22;1.23;;;;;;;13.16;100.00;96436.72;1036056;28;20068;-79
2021/08/24 01:08:36;;;;;;;2.90;1.30;;;;;;;13.13;100.00;96436.47;1036102;28;20086;-80
2021/08/24 01:09:07;;;;;;;2.15;1.25;;;;;;;13.14;100.00;96432.69;1031963;28;20038;-79
2021/08/24 01:09:56;;;;;;;3.10;1.23;;;;;;;13.13;100.00;96423.03;1033448;28;20034;-78
2021/08/24 01:10:31;;;;;;;2.70;1.15;;;;;;;13.15;100.00;96431.59;1044363;28;20264;-78
2021/08/24 01:11:07;;;;;;;2.30;1.20;;;;;;;13.14;100.00;96430.81;1043339;28;20036;-78
2021/08/24 01:11:57;;;;;;;2.17;1.30;;;;;;;13.13;100.00;96428.41;1040151;28;20617;-78
2021/08/24 01:12:55;;;;;;;3.58;1.33;;;;;;;13.10;100.00;96431.63;1040262;28;20025;-79
2021/08/24 01:13:31;;;;;;;4.35;1.25;;;;;;;13.10;100.00;96429.75;1044475;28;20025;-78
2021/08/24 01:14:17;;;;;;;4.47;1.50;;;;;;;13.08;100.00;96433.78;1044575;28;20025;-79
2021/08/24 01:14:53;;;;;;;4.72;1.58;;;;;;;13.09;100.00;96433.50;1044384;28;20029;-79
2021/08/24 01:15:29;;;;;;;2.90;1.60;;;;;;;13.06;100.00;96434.09;1044601;28;20032;-79
2021/08/24 01:16:14;;;;;;;2.72;1.27;;;;;;;13.05;100.00;96426.28;1044210;28;20114;-78
2021/08/24 01:17:07;;;;;;;2.15;1.33;;;;;;;13.04;100.00;96430.84;1040126;28;20096;-79
2021/08/24 01:18:02;;;;;;;4.18;1.27;;;;;;;13.03;100.00;96434.63;1036851;28;20360;-78
2021/08/24 01:18:48;;;;;;;2.97;1.25;;;;;;;13.01;100.00;96436.78;1029813;28;20030;-79
2021/08/24 01:19:27;;;;;;;2.80;1.50;;;;;;;13.00;100.00;96424.44;1023893;28;20035;-79
2021/08/24 01:20:08;;;;;;;2.55;1.30;;;;;;;13.06;100.00;96433.28;1024022;29;20062;-79
2021/08/24 01:21:10;;;;;;;2.17;1.30;;;;;;;13.00;100.00;96424.44;1028023;28;20676;-78
2021/08/24 01:21:58;;;;;;;2.92;1.38;;;;;;;12.96;100.00;96423.38;1040138;28;20021;-79
2021/08/24 01:22:50;;;;;;;3.13;1.63;;;;;;;12.96;100.00;96432.25;1042673;28;20029;-79
2021/08/24 01:23:41;;;;;;;2.17;1.25;;;;;;;12.93;100.00;96430.09;1031609;28;20062;-79
2021/08/24 01:24:14;;;;;;;2.98;1.54;;;;;;;12.97;100.00;96430.34;1033347;28;20044;-79
2021/08/24 01:24:57;;;;;;;2.83;1.80;;;;;;;12.95;100.00;96427.97;1027989;28;20058;-79
2021/08/24 01:25:40;;;;;;;3.58;1.40;;;;;;;12.94;100.00;96429.00;1031950;28;20039;-79
2021/08/24 01:26:41;;;;;;;3.58;1.38;;;;;;;12.97;100.00;96433.03;1028003;28;20031;-79
2021/08/24 01:27:13;;;;;;;3.70;1.60;;;;;;;12.97;100.00;96435.72;1035561;28;20054;-79
2021/08/24 01:27:52;;;;;;;4.13;1.35;;;;;;;13.00;100.00;96425.25;1036267;28;20125;-79
2021/08/24 01:28:25;;;;;;;2.92;1.30;;;;;;;13.02;100.00;96439.19;1031806;28;20032;-79
2021/08/24 01:29:18;;;;;;;3.33;1.40;;;;;;;12.95;100.00;96438.69;1027878;28;20411;-79
2021/08/24 01:29:54;;;;;;;5.57;1.42;;;;;;;12.94;100.00;96437.06;1031898;28;20022;-78
2021/08/24 01:30:47;;;;;;;2.13;1.60;;;;;;;12.96;100.00;96434.91;1040195;28;20056;-79
2021/08/24 01:31:37;;;;;;;3.45;1.38;;;;;;;12.94;100.00;96433.56;1040062;28;20025;-79
2021/08/24 01:32:33;;;;;;;2.50;1.40;;;;;;;12.91;100.00;96436.81;1040129;28;20049;-78
2021/08/24 01:33:48;;;;;;;2.22;1.35;;;;;;;12.90;100.00;96437.91;1046571;28;20041;-79
2021/08/24 01:34:56;;;;;;;3.58;1.50;;;;;;;12.87;100.00;96441.91;1040649;28;20045;-78
2021/08/24 01:35:43;;;;;;;3.35;1.45;;;;;;;12.88;100.00;96434.66;1040287;28;20025;-79
2021/08/24 01:36:20;;;;;;;2.90;1.52;;;;;;;12.87;100.00;96435.75;1036174;28;20097;-79
2021/08/24 01:36:58;;;;;;;2.65;1.63;;;;;;;12.86;100.00;96437.63;1028056;28;20074;-79
2021/08/24 01:37:32;;;;;;;3.40;1.40;;;;;;;12.88;100.00;96440.03;1036353;28;20025;-79
2021/08/24 01:38:07;;;;;;;3.42;1.75;;;;;;;12.91;100.00;96440.31;1032031;28;20090;-79
2021/08/24 01:38:49;;;;;;;3.53;1.60;;;;;;;12.90;100.00;96440.59;1034041;28;20161;-79
2021/08/24 01:39:25;;;;;;;4.55;1.70;;;;;;;12.90;100.00;96441.38;1028037;28;20062;-79
2021/08/24 01:40:02;;;;;;;3.08;1.52;;;;;;;12.90;100.00;96438.72;1030102;28;20019;-78
2021/08/24 01:40:42;;;;;;;2.28;1.30;;;;;;;12.90;100.00;96438.72;1027357;28;20039;-78
2021/08/24 01:41:24;;;;;;;3.00;1.67;;;;;;;12.91;100.00;96436.81;1027020;28;20026;-79
2021/08/24 01:42:24;;;;;;;3.28;1.60;;;;;;;12.91;100.00;96437.63;1036289;28;20109;-79
2021/08/24 01:42:54;;;;;;;5.55;1.52;;;;;;;12.91;100.00;96442.19;1041378;28;20474;-79
2021/08/24 01:43:33;;;;;;;6.17;1.87;;;;;;;12.89;100.00;96436.28;1048518;28;20032;-78
2021/08/24 01:44:19;;;;;;;2.88;1.52;;;;;;;12.86;100.00;96437.63;1040557;28;20088;-79
2021/08/24 01:44:52;;;;;;;2.58;1.50;;;;;;;12.89;100.00;96436.28;1040229;28;20033;-78
2021/08/24 01:45:30;;;;;;;11.77;1.90;;;;;;;12.85;100.00;96441.41;1040137;28;20014;-78
2021/08/24 01:46:24;;;;;;;2.92;1.50;;;;;;;12.83;100.00;96443.53;1036130;28;20018;-78
2021/08/24 01:46:59;;;;;;;3.10;1.50;;;;;;;12.86;100.00;96436.84;1040160;28;20029;-78
2021/08/24 01:47:41;;;;;;;3.30;1.80;;;;;;;12.87;100.00;96431.19;1031603;28;20514;-78
2021/08/24 01:48:24;;;;;;;6.18;1.73;;;;;;;12.85;100.00;96435.25;1036160;28;20025;-78
2021/08/24 01:48:55;;;;;;;3.03;1.40;;;;;;;12.84;100.00;96434.41;1027855;28;20491;-78
2021/08/24 01:49:37;;;;;;;2.70;1.60;;;;;;;12.84;100.00;96439.78;1030483;28;20081;-78
2021/08/24 01:50:30;;;;;;;3.25;1.48;;;;;;;12.82;100.00;96433.09;1028090;28;20053;-78
2021/08/24 01:51:07;;;;;;;2.95;1.65;;;;;;;12.84;100.00;96430.94;1031377;28;20081;-78
2021/08/24 01:51:43;;;;;;;3.15;1.73;;;;;;;12.85;100.00;96436.03;1031976;28;20054;-78
2021/08/24 01:52:16;;;;;;;4.10;1.75;;;;;;;12.84;100.00;96436.28;1032433;28;20041;-78
2021/08/24 01:52:55;;;;;;;3.03;1.70;;;;;;;12.84;100.00;96436.28;1027555;28;20026;-78
2021/08/24 01:53:31;;;;;;;5.95;1.77;;;;;;;12.85;100.00;96433.34;1023936;28;20049;-78
2021/08/24 01:54:04;;;;;;;3.95;1.80;;;;;;;12.86;100.00;96443.00;1024045;28;20055;-78
2021/08/24 01:54:59;;;;;;;3.05;1.63;;;;;;;12.84;100.00;96431.72;1023721;28;20588;-78
2021/08/24 01:55:31;;;;;;;2.22;1.50;;;;;;;12.84;100.00;96433.59;1023848;29;20477;-78
2021/08/24 01:56:05;;;;;;;3.65;1.70;;;;;;;12.87;100.00;96430.38;1035920;28;20116;-78
2021/08/24 01:56:38;;;;;;;4.90;1.98;;;;;;;12.87;100.00;96433.88;1035897;28;20471;-77
2021/08/24 01:57:13;;;;;;;3.60;1.85;;;;;;;12.91;100.00;96437.63;1031853;28;20120;-78
2021/08/24 01:57:55;;;;;;;2.70;1.60;;;;;;;12.92;100.00;96435.75;1023941;28;20034;-78
2021/08/24 01:58:34;;;;;;;5.43;2.22;;;;;;;12.87;100.00;96439.25;1031844;28;20472;-79
2021/08/24 01:59:18;;;;;;;6.80;1.90;;;;;;;12.87;100.00;96435.75;1031575;28;20022;-78
2021/08/24 01:59:59;;;;;;;3.55;1.90;;;;;;;12.87;100.00;96436.56;1032670;28;20077;-78
2021/08/24 02:00:32;;;;;;;4.53;1.90;;;;;;;12.87;100.00;96438.44;1031835;28;20026;-78
2021/08/24 02:01:03;;;;;;;3.67;1.92;;;;;;;12.87;100.00;96435.75;1036056;28;20026;-78
2021/08/24 02:01:35;;;;;;;3.20;1.80;;;;;;;12.90;100.00;96433.34;1032028;28;20026;-78
2021/08/24 02:02:07;;;;;;;3.08;1.90;;;;;;;12.92;100.00;96439.22;1032793;28;20027;-78
2021/08/24 02:02:40;;;;;;;3.60;1.60;;;;;;;12.92;100.00;96431.19;1027969;28;20489;-79
2021/08/24 02:03:11;;;;;;;2.65;1.50;;;;;;;12.88;100.00;96435.47;1027918;28;20081;-78
2021/08/24 02:03:44;;;;;;;2.88;1.80;;;;;;;12.89;100.00;96431.72;1027738;28;20121;-79
2021/08/24 02:04:18;;;;;;;3.47;1.80;;;;;;;12.90;100.00;96433.34;1032029;28;20038;-78
2021/08/24 02:04:53;;;;;;;4.03;1.85;;;;;;;12.90;100.00;96432.53;1031750;28;20022;-78
2021/08/24 02:05:35;;;;;;;4.93;1.98;;;;;;;12.90;100.00;96427.97;1030487;28;20395;-78
2021/08/24 02:06:10;;;;;;;2.88;1.55;;;;;;;12.90;100.00;96436.03;1030731;28;20073;-78
2021/08/24 02:06:44;;;;;;;3.15;1.63;;;;;;;12.90;100.00;96429.84;1037229;28;20116;-78
2021/08/24 02:07:14;;;;;;;3.72;1.80;;;;;;;12.87;100.00;96433.88;1034589;28;20387;-78
2021/08/24 02:07:45;;;;;;;3.00;1.97;;;;;;;12.85;100.00;96429.88;1027858;28;20018;-78
2021/08/24 02:08:18;;;;;;;3.47;1.80;;;;;;;12.81;100.00;96431.50;1027863;28;20019;-78
2021/08/24 02:08:50;;;;;;;3.38;1.70;;;;;;;12.81;100.00;96437.66;1027958;28;20381;-78
2021/08/24 02:09:28;;;;;;;4.05;2.00;;;;;;;12.80;100.00;96430.69;1031853;28;20056;-78
2021/08/24 02:10:00;;;;;;;3.42;1.98;;;;;;;12.78;100.00;96432.03;1034339;28;20464;-79
2021/08/24 02:10:31;;;;;;;4.95;1.90;;;;;;;12.75;100.00;96434.19;1029680;28;20030;-79
2021/08/24 02:11:02;;;;;;;3.70;2.20;;;;;;;12.71;100.00;96427.75;1027865;28;20033;-78
2021/08/24 02:11:33;;;;;;;4.00;2.17;;;;;;;12.71;100.00;96433.13;1029324;28;20054;-78
2021/08/24 02:12:04;;;;;;;4.40;2.13;;;;;;;12.72;100.00;96432.03;1028394;28;20490;-78
2021/08/24 02:12:35;;;;;;;3.33;1.95;;;;;;;12.74;100.00;96434.44;1039966;28;20496;-78
2021/08/24 02:13:05;;;;;;;3.60;2.10;;;;;;;12.75;100.00;96428.81;1031553;28;20027;-78
2021/08/24 02:13:39;;;;;;;4.33;2.00;;;;;;;12.78;100.00;96426.66;1027875;28;20022;-78
2021/08/24 02:14:10;;;;;;;4.75;2.65;;;;;;;12.74;100.00;96431.75;1027664;28;20078;-78
2021/08/24 02:14:41;;;;;;;3.67;2.13;;;;;;;12.74;100.00;96424.53;1027847;28;20097;-78
2021/08/24 02:15:11;;;;;;;4.83;2.40;;;;;;;12.75;100.00;96438.75;1027922;28;20475;-78
2021/08/24 02:15:47;;;;;;;4.67;2.10;;;;;;;12.73;100.00;96430.16;1027911;28;20019;-78
2021/08/24 02:16:23;;;;;;;3.38;2.10;;;;;;;12.71;100.00;96429.63;1024441;28;20032;-79
2021/08/24 02:16:55;;;;;;;4.15;2.30;;;;;;;12.68;100.00;96432.84;1029495;28;20038;-78
2021/08/24 02:17:25;;;;;;;4.53;2.20;;;;;;;12.68;100.00;96430.16;1031733;28;20018;-77
2021/08/24 02:17:56;;;;;;;6.50;2.50;;;;;;;12.66;100.00;96432.34;1032685;28;20038;-78
2021/08/24 02:18:30;;;;;;;3.63;2.20;;;;;;;12.67;100.00;96433.94;1032221;28;20443;-78
2021/08/24 02:19:05;;;;;;;3.92;2.30;;;;;;;12.68;100.00;96433.66;1031763;28;20034;-77
2021/08/24 02:19:38;;;;;;;3.47;2.20;;;;;;;12.68;100.00;96428.28;1033061;28;20033;-78
2021/08/24 02:20:23;;;;;;;4.18;2.13;;;;;;;12.71;100.00;96435.00;1031863;28;20027;-77
2021/08/24 02:20:56;;;;;;;8.82;3.00;;;;;;;12.68;100.00;96427.50;1027863;28;20023;-78
2021/08/24 02:21:29;;;;;;;4.70;2.28;;;;;;;12.66;100.00;96430.44;1027938;28;20118;-78
2021/08/24 02:22:01;;;;;;;5.03;2.42;;;;;;;12.64;100.00;96421.88;1030534;28;20057;-78
2021/08/24 02:22:34;;;;;;;3.67;2.30;;;;;;;12.69;100.00;96426.41;1030087;28;20534;-78
2021/08/24 02:23:07;;;;;;;4.07;2.30;;;;;;;12.74;100.00;96431.75;1028909;28;20035;-79
2021/08/24 02:23:37;;;;;;;5.30;2.67;;;;;;;12.69;100.00;96423.72;1031909;28;20108;-78
2021/08/24 02:24:08;;;;;;;4.80;2.53;;;;;;;12.71;100.00;96426.97;1031780;28;20026;-78
2021/08/24 02:24:42;;;;;;;5.93;2.72;;;;;;;12.73;100.00;96427.47;1023903;29;20034;-78
2021/08/24 02:25:18;;;;;;;4.88;2.42;;;;;;;12.77;100.00;96427.75;1023731;28;20098;-79
2021/08/24 02:25:49;;;;;;;6.78;2.90;;;;;;;12.76;100.00;96421.56;1026583;28;20034;-78
2021/08/24 02:26:19;;;;;;;4.95;2.60;;;;;;;12.77;100.00;96427.75;1027735;28;20390;-79
2021/08/24 02:26:50;;;;;;;5.97;2.40;;;;;;;12.77;100.00;96425.84;1028812;28;20023;-79
2021/08/24 02:27:26;;;;;;;4.50;2.90;;;;;;;12.70;100.00;96428.84;1031834;28;20041;-79
2021/08/24 02:28:11;;;;;;;6.88;3.08;;;;;;;12.67;100.00;96425.88;1023733;28;20031;-79
2021/08/24 02:28:49;;;;;;;5.97;3.20;;;;;;;12.60;100.00;96418.13;1023717;29;20035;-78
2021/08/24 02:29:19;;;;;;;4.60;2.53;;;;;;;12.60;100.00;96418.13;1023886;28;20082;-79
2021/08/24 02:29:50;;;;;;;3.97;2.70;;;;;;;12.61;100.00;96416.25;1026708;28;20039;-79
2021/08/24 02:30:20;;;;;;;10.70;3.30;;;;;;;12.61;100.00;96429.66;1028811;28;20465;-79
2021/08/24 02:30:57;;;;;;;4.80;2.90;;;;;;;12.61;100.00;96419.75;1032135;28;20022;-79
2021/08/24 02:31:40;;;;;;;6.63;2.92;;;;;;;12.57;100.00;96421.34;1032858;28;20085;-79
2021/08/24 02:32:14;;;;;;;4.22;2.83;;;;;;;12.60;100.00;96428.88;1027755;28;20027;-79
2021/08/24 02:32:46;;;;;;;5.28;2.90;;;;;;;12.56;100.00;96424.31;1027853;28;20105;-79
2021/08/24 02:33:17;;;;;;;5.05;2.72;;;;;;;12.53;100.00;96430.22;1038299;28;20093;-79
2021/08/24 02:33:53;;;;;;;8.65;2.97;;;;;;;12.52;100.00;96429.41;1035969;28;20410;-79
2021/08/24 02:34:36;;;;;;;7.70;3.30;;;;;;;12.53;100.00;96427.53;1027758;28;20038;-79
2021/08/24 02:35:26;;;;;;;6.90;2.58;;;;;;;12.53;100.00;96424.84;1035797;28;20022;-79
2021/08/24 02:35:57;;;;;;;4.97;2.80;;;;;;;12.53;100.00;96424.84;1032140;28;20097;-79
2021/08/24 02:36:28;;;;;;;5.88;2.92;;;;;;;12.53;100.00;96422.97;1027789;28;20023;-79
2021/08/24 02:37:24;;;;;;;6.10;3.33;;;;;;;12.59;100.00;96416.53;1031943;28;20038;-79
2021/08/24 02:38:16;;;;;;;5.55;2.65;;;;;;;12.60;100.00;96425.38;1031932;28;20062;-79
2021/08/24 02:38:52;;;;;;;6.70;3.03;;;;;;;12.61;100.00;96422.41;1040601;28;20165;-79
2021/08/24 02:39:27;;;;;;;5.40;2.95;;;;;;;12.58;100.00;96422.94;1035841;28;20024;-79
2021/08/24 02:40:29;;;;;;;4.43;3.13;;;;;;;12.57;100.00;96420.56;1031748;28;20030;-79
2021/08/24 02:41:10;;;;;;;5.85;3.10;;;;;;;12.48;100.00;96429.13;1033293;28;20443;-79
2021/08/24 02:41:45;;;;;;;8.10;3.03;;;;;;;12.49;100.00;96424.59;1035159;28;20553;-79
2021/08/24 02:42:38;;;;;;;7.30;2.88;;;;;;;12.48;100.00;96421.09;1035936;28;20088;-79
2021/08/24 02:43:31;;;;;;;9.80;3.13;;;;;;;12.51;100.00;96417.06;1031790;28;20041;-79
2021/08/24 02:44:09;;;;;;;5.25;2.83;;;;;;;12.53;100.00;96422.16;1033872;28;20025;-79
2021/08/24 02:44:42;;;;;;;7.30;3.10;;;;;;;12.49;100.00;96421.91;1032055;28;20034;-79
2021/08/24 02:45:44;;;;;;;4.88;2.95;;;;;;;12.44;100.00;96429.97;1039933;28;20029;-80